sensor_id;sensor_type;location;lat;lon;timestamp;pressure;altitude;pressure_sealevel;temperature;humidity
71915;BME280;60387;49.994;14.660;2023-02-28T00:01:31;98785.56;;;2.93;54.79
71915;BME280;60387;49.994;14.660;2023-02-28T00:04:05;98783.94;;;2.92;54.47
71915;BME280;60387;49.994;14.660;2023-02-28T00:06:38;98778.16;;;2.95;54.79
71915;BME280;60387;49.994;14.660;2023-02-28T00:09:11;98775.00;;;2.98;54.41
71915;BME280;60387;49.994;14.660;2023-02-28T00:11:44;98771.75;;;2.96;55.08
71915;BME280;60387;49.994;14.660;2023-02-28T00:14:18;98781.88;;;2.94;54.86
71915;BME280;60387;49.994;14.660;2023-02-28T00:16:51;98777.69;;;2.98;55.00
71915;BME280;60387;49.994;14.660;2023-02-28T00:19:24;98770.22;;;3.00;55.07
71915;BME280;60387;49.994;14.660;2023-02-28T00:21:57;98773.94;;;2.99;54.93
71915;BME280;60387;49.994;14.660;2023-02-28T00:24:31;98772.19;;;2.93;54.79
71915;BME280;60387;49.994;14.660;2023-02-28T00:27:04;98785.91;;;2.97;54.55
71915;BME280;60387;49.994;14.660;2023-02-28T00:29:37;98775.84;;;2.99;55.23
71915;BME280;60387;49.994;14.660;2023-02-28T00:32:11;98771.00;;;2.89;55.41
71915;BME280;60387;49.994;14.660;2023-02-28T00:34:44;98774.28;;;2.91;54.83
71915;BME280;60387;49.994;14.660;2023-02-28T00:37:17;98776.69;;;2.81;55.55
71915;BME280;60387;49.994;14.660;2023-02-28T00:39:50;98775.78;;;2.87;55.08
71915;BME280;60387;49.994;14.660;2023-02-28T00:42:24;98778.47;;;2.87;55.26
71915;BME280;60387;49.994;14.660;2023-02-28T00:44:57;98777.84;;;2.85;55.40
71915;BME280;60387;49.994;14.660;2023-02-28T00:47:32;98776.69;;;2.81;55.38
71915;BME280;60387;49.994;14.660;2023-02-28T00:50:05;98779.94;;;2.83;55.56
71915;BME280;60387;49.994;14.660;2023-02-28T00:52:39;98774.84;;;2.82;55.33
71915;BME280;60387;49.994;14.660;2023-02-28T00:55:12;98775.03;;;2.80;55.44
71915;BME280;60387;49.994;14.660;2023-02-28T00:57:45;98768.66;;;2.81;55.32
71915;BME280;60387;49.994;14.660;2023-02-28T01:00:19;98763.50;;;2.80;55.27
71915;BME280;60387;49.994;14.660;2023-02-28T01:02:52;98768.06;;;2.79;55.11
71915;BME280;60387;49.994;14.660;2023-02-28T01:05:25;98772.09;;;2.70;55.68
71915;BME280;60387;49.994;14.660;2023-02-28T01:07:59;98779.19;;;2.76;55.67
71915;BME280;60387;49.994;14.660;2023-02-28T01:10:32;98776.78;;;2.75;55.56
71915;BME280;60387;49.994;14.660;2023-02-28T01:13:05;98767.50;;;2.77;55.62
71915;BME280;60387;49.994;14.660;2023-02-28T01:15:42;98783.28;;;2.79;55.37
71915;BME280;60387;49.994;14.660;2023-02-28T01:18:17;98772.84;;;2.77;55.66
71915;BME280;60387;49.994;14.660;2023-02-28T01:20:50;98776.41;;;2.71;55.98
71915;BME280;60387;49.994;14.660;2023-02-28T01:23:23;98765.59;;;2.78;55.05
71915;BME280;60387;49.994;14.660;2023-02-28T01:25:57;98768.06;;;2.79;55.50
71915;BME280;60387;49.994;14.660;2023-02-28T01:28:30;98771.06;;;2.71;55.27
71915;BME280;60387;49.994;14.660;2023-02-28T01:31:03;98769.19;;;2.72;55.63
71915;BME280;60387;49.994;14.660;2023-02-28T01:33:38;98768.06;;;2.79;55.40
71915;BME280;60387;49.994;14.660;2023-02-28T01:36:14;98776.09;;;2.79;55.80
71915;BME280;60387;49.994;14.660;2023-02-28T01:38:48;98770.38;;;2.76;55.62
71915;BME280;60387;49.994;14.660;2023-02-28T01:41:25;98770.16;;;2.77;55.66
71915;BME280;60387;49.994;14.660;2023-02-28T01:47:10;98772.84;;;2.77;55.29
71915;BME280;60387;49.994;14.660;2023-02-28T01:49:43;98764.88;;;2.71;55.30
71915;BME280;60387;49.994;14.660;2023-02-28T01:52:18;98767.13;;;2.74;55.18
71915;BME280;60387;49.994;14.660;2023-02-28T01:54:54;98765.59;;;2.78;55.29
71915;BME280;60387;49.994;14.660;2023-02-28T01:57:32;98768.50;;;2.76;55.00
71915;BME280;60387;49.994;14.660;2023-02-28T02:00:13;98758.03;;;2.75;55.25
71915;BME280;60387;49.994;14.660;2023-02-28T02:02:49;98759.09;;;2.74;55.53
71915;BME280;60387;49.994;14.660;2023-02-28T02:05:26;98749.78;;;2.76;55.27
71915;BME280;60387;49.994;14.660;2023-02-28T02:08:09;98753.88;;;2.79;55.58
71915;BME280;60387;49.994;14.660;2023-02-28T02:10:45;98751.88;;;2.74;55.27
71915;BME280;60387;49.994;14.660;2023-02-28T02:19:52;98768.09;;;2.61;55.22
71915;BME280;60387;49.994;14.660;2023-02-28T02:25:42;98748.03;;;2.70;54.98
71915;BME280;60387;49.994;14.660;2023-02-28T02:34:26;98745.34;;;2.70;54.99
71915;BME280;60387;49.994;14.660;2023-02-28T02:42:41;98741.84;;;2.70;55.27
71915;BME280;60387;49.994;14.660;2023-02-28T02:45:31;98741.47;;;2.66;54.96
71915;BME280;60387;49.994;14.660;2023-02-28T02:48:10;98746.81;;;2.66;55.46
71915;BME280;60387;49.994;14.660;2023-02-28T02:50:49;98749.22;;;2.56;55.41
71915;BME280;60387;49.994;14.660;2023-02-28T02:53:36;98764.22;;;2.57;55.44
71915;BME280;60387;49.994;14.660;2023-02-28T02:56:12;98751.44;;;2.59;55.41
71915;BME280;60387;49.994;14.660;2023-02-28T02:58:49;98756.09;;;2.52;54.77
71915;BME280;60387;49.994;14.660;2023-02-28T03:01:25;98750.88;;;2.39;55.52
71915;BME280;60387;49.994;14.660;2023-02-28T03:04:16;98764.84;;;2.41;55.08
71915;BME280;60387;49.994;14.660;2023-02-28T03:06:50;98756.53;;;2.31;55.42
71915;BME280;60387;49.994;14.660;2023-02-28T03:09:25;98766.56;;;2.36;55.10
71915;BME280;60387;49.994;14.660;2023-02-28T03:11:59;98761.00;;;2.37;54.96
71915;BME280;60387;49.994;14.660;2023-02-28T03:14:50;98760.47;;;2.29;55.16
71915;BME280;60387;49.994;14.660;2023-02-28T03:20:37;98760.84;;;2.14;55.31
71915;BME280;60387;49.994;14.660;2023-02-28T03:23:17;98754.44;;;2.15;55.25
71915;BME280;60387;49.994;14.660;2023-02-28T03:26:10;98764.09;;;2.16;54.91
71915;BME280;60387;49.994;14.660;2023-02-28T03:31:41;98763.66;;;2.01;55.99
71915;BME280;60387;49.994;14.660;2023-02-28T03:34:31;98759.19;;;1.95;55.69
71915;BME280;60387;49.994;14.660;2023-02-28T03:37:13;98755.66;;;2.01;55.46
71915;BME280;60387;49.994;14.660;2023-02-28T03:39:54;98762.00;;;2.00;55.52
71915;BME280;60387;49.994;14.660;2023-02-28T03:42:33;98756.97;;;1.92;55.42
71915;BME280;60387;49.994;14.660;2023-02-28T03:45:13;98755.00;;;1.81;55.84
71915;BME280;60387;49.994;14.660;2023-02-28T03:47:52;98752.34;;;1.81;55.21
71915;BME280;60387;49.994;14.660;2023-02-28T03:50:33;98750.34;;;1.77;56.21
71915;BME280;60387;49.994;14.660;2023-02-28T03:53:13;98748.50;;;1.77;55.32
71915;BME280;60387;49.994;14.660;2023-02-28T03:56:00;98750.13;;;1.78;55.90
71915;BME280;60387;49.994;14.660;2023-02-28T04:01:36;98756.59;;;1.64;56.22
71915;BME280;60387;49.994;14.660;2023-02-28T04:04:12;98755.06;;;1.57;56.24
71915;BME280;60387;49.994;14.660;2023-02-28T04:06:45;98753.41;;;1.56;55.28
71915;BME280;60387;49.994;14.660;2023-02-28T04:09:22;98743.16;;;1.53;55.62
71915;BME280;60387;49.994;14.660;2023-02-28T04:11:55;98752.16;;;1.58;54.97
71915;BME280;60387;49.994;14.660;2023-02-28T04:14:28;98746.06;;;1.51;56.07
71915;BME280;60387;49.994;14.660;2023-02-28T04:17:02;98753.47;;;1.49;55.42
71915;BME280;60387;49.994;14.660;2023-02-28T04:19:35;98750.19;;;1.47;56.12
71915;BME280;60387;49.994;14.660;2023-02-28T04:22:09;98754.75;;;1.40;56.42
71915;BME280;60387;49.994;14.660;2023-02-28T04:24:43;98753.56;;;1.36;56.53
71915;BME280;60387;49.994;14.660;2023-02-28T04:27:16;98767.19;;;1.28;56.28
71915;BME280;60387;49.994;14.660;2023-02-28T04:29:49;98760.00;;;1.29;55.84
71915;BME280;60387;49.994;14.660;2023-02-28T04:32:22;98757.56;;;1.27;55.82
71915;BME280;60387;49.994;14.660;2023-02-28T04:34:56;98760.88;;;1.23;56.17
71915;BME280;60387;49.994;14.660;2023-02-28T04:37:29;98754.88;;;1.27;55.83
71915;BME280;60387;49.994;14.660;2023-02-28T04:40:03;98765.56;;;1.27;55.67
71915;BME280;60387;49.994;14.660;2023-02-28T04:42:36;98761.06;;;1.21;55.57
71915;BME280;60387;49.994;14.660;2023-02-28T04:45:10;98763.78;;;1.15;56.46
71915;BME280;60387;49.994;14.660;2023-02-28T04:47:43;98765.22;;;1.17;56.71
71915;BME280;60387;49.994;14.660;2023-02-28T04:50:17;98769.34;;;1.13;55.71
71915;BME280;60387;49.994;14.660;2023-02-28T04:52:50;98778.03;;;1.02;56.71
71915;BME280;60387;49.994;14.660;2023-02-28T04:55:23;98763.88;;;1.02;55.96
71915;BME280;60387;49.994;14.660;2023-02-28T04:57:56;98779.53;;;0.98;56.26
71915;BME280;60387;49.994;14.660;2023-02-28T05:00:30;98770.03;;;1.02;55.86
71915;BME280;60387;49.994;14.660;2023-02-28T05:03:03;98783.56;;;1.07;56.29
71915;BME280;60387;49.994;14.660;2023-02-28T05:05:36;98772.25;;;1.12;55.89
71915;BME280;60387;49.994;14.660;2023-02-28T05:08:10;98771.66;;;1.03;56.32
71915;BME280;60387;49.994;14.660;2023-02-28T05:10:43;98778.00;;;1.09;56.18
71915;BME280;60387;49.994;14.660;2023-02-28T05:13:16;98778.03;;;1.02;56.08
71915;BME280;60387;49.994;14.660;2023-02-28T05:15:49;98773.75;;;1.01;55.46
71915;BME280;60387;49.994;14.660;2023-02-28T05:18:23;98769.84;;;0.97;56.59
71915;BME280;60387;49.994;14.660;2023-02-28T05:20:56;98785.06;;;0.97;55.96
71915;BME280;60387;49.994;14.660;2023-02-28T05:23:29;98789.16;;;0.99;56.59
71915;BME280;60387;49.994;14.660;2023-02-28T05:26:03;98789.56;;;0.96;56.26
71915;BME280;60387;49.994;14.660;2023-02-28T05:28:36;98789.78;;;0.95;56.41
71915;BME280;60387;49.994;14.660;2023-02-28T05:31:13;98786.28;;;0.94;56.26
71915;BME280;60387;49.994;14.660;2023-02-28T05:33:46;98789.16;;;0.93;56.17
71915;BME280;60387;49.994;14.660;2023-02-28T05:36:20;98802.25;;;1.01;55.65
71915;BME280;60387;49.994;14.660;2023-02-28T05:38:53;98794.28;;;0.94;55.86
71915;BME280;60387;49.994;14.660;2023-02-28T05:41:27;98792.47;;;0.88;56.57
71915;BME280;60387;49.994;14.660;2023-02-28T05:44:00;98802.34;;;0.88;56.15
71915;BME280;60387;49.994;14.660;2023-02-28T05:46:33;98804.56;;;0.91;56.51
71915;BME280;60387;49.994;14.660;2023-02-28T05:49:06;98808.91;;;0.85;56.33
71915;BME280;60387;49.994;14.660;2023-02-28T05:51:40;98793.56;;;0.81;56.32
71915;BME280;60387;49.994;14.660;2023-02-28T05:54:13;98807.94;;;0.80;56.15
71915;BME280;60387;49.994;14.660;2023-02-28T05:56:46;98814.50;;;0.77;56.41
71915;BME280;60387;49.994;14.660;2023-02-28T05:59:20;98813.84;;;0.82;55.88
71915;BME280;60387;49.994;14.660;2023-02-28T06:01:53;98815.56;;;0.70;57.28
71915;BME280;60387;49.994;14.660;2023-02-28T06:04:26;98810.63;;;0.67;57.01
71915;BME280;60387;49.994;14.660;2023-02-28T06:07:00;98815.56;;;0.63;57.45
71915;BME280;60387;49.994;14.660;2023-02-28T06:09:33;98832.97;;;0.72;56.79
71915;BME280;60387;49.994;14.660;2023-02-28T06:12:07;98825.75;;;0.79;56.80
71915;BME280;60387;49.994;14.660;2023-02-28T06:14:40;98829.22;;;0.86;56.30
71915;BME280;60387;49.994;14.660;2023-02-28T06:17:13;98821.41;;;0.85;57.15
71915;BME280;60387;49.994;14.660;2023-02-28T06:19:46;98828.38;;;0.92;56.56
71915;BME280;60387;49.994;14.660;2023-02-28T06:22:20;98825.28;;;0.95;56.71
71915;BME280;60387;49.994;14.660;2023-02-28T06:24:53;98841.66;;;0.99;56.51
71915;BME280;60387;49.994;14.660;2023-02-28T06:27:26;98831.59;;;1.01;55.95
71915;BME280;60387;49.994;14.660;2023-02-28T06:30:00;98832.19;;;1.09;56.38
71915;BME280;60387;49.994;14.660;2023-02-28T06:32:33;98849.72;;;1.23;56.11
71915;BME280;60387;49.994;14.660;2023-02-28T06:35:07;98848.66;;;1.31;56.21
71915;BME280;60387;49.994;14.660;2023-02-28T06:37:40;98850.06;;;1.40;56.22
71915;BME280;60387;49.994;14.660;2023-02-28T06:40:14;98847.50;;;1.51;56.27
71915;BME280;60387;49.994;14.660;2023-02-28T06:42:47;98849.91;;;1.59;55.50
71915;BME280;60387;49.994;14.660;2023-02-28T06:45:21;98851.56;;;1.60;55.86
71915;BME280;60387;49.994;14.660;2023-02-28T06:47:54;98855.97;;;1.73;55.33
71915;BME280;60387;49.994;14.660;2023-02-28T06:50:28;98851.78;;;1.83;55.12
71915;BME280;60387;49.994;14.660;2023-02-28T06:53:01;98858.53;;;1.86;55.14
71915;BME280;60387;49.994;14.660;2023-02-28T06:55:37;98859.88;;;1.95;54.70
71915;BME280;60387;49.994;14.660;2023-02-28T06:58:10;98858.34;;;2.05;53.96
71915;BME280;60387;49.994;14.660;2023-02-28T07:00:45;98859.91;;;2.13;53.70
71915;BME280;60387;49.994;14.660;2023-02-28T07:03:18;98872.97;;;2.27;54.26
71915;BME280;60387;49.994;14.660;2023-02-28T07:05:52;98858.97;;;2.25;53.33
71915;BME280;60387;49.994;14.660;2023-02-28T07:08:26;98859.44;;;2.40;53.49
71915;BME280;60387;49.994;14.660;2023-02-28T07:10:59;98864.88;;;2.52;53.61
71915;BME280;60387;49.994;14.660;2023-02-28T07:13:32;98854.72;;;2.60;52.50
71915;BME280;60387;49.994;14.660;2023-02-28T07:16:09;98863.75;;;2.59;52.21
71915;BME280;60387;49.994;14.660;2023-02-28T07:18:43;98871.13;;;2.64;51.16
71915;BME280;60387;49.994;14.660;2023-02-28T07:21:16;98859.81;;;2.80;51.70
71915;BME280;60387;49.994;14.660;2023-02-28T07:23:49;98864.34;;;2.97;51.48
71915;BME280;60387;49.994;14.660;2023-02-28T07:26:23;98861.97;;;3.07;51.42
71915;BME280;60387;49.994;14.660;2023-02-28T07:28:56;98870.84;;;3.19;50.73
71915;BME280;60387;49.994;14.660;2023-02-28T07:31:29;98872.78;;;3.30;49.80
71915;BME280;60387;49.994;14.660;2023-02-28T07:34:03;98881.81;;;3.47;49.27
71915;BME280;60387;49.994;14.660;2023-02-28T07:36:36;98876.13;;;3.55;49.57
71915;BME280;60387;49.994;14.660;2023-02-28T07:39:09;98888.00;;;3.59;49.78
71915;BME280;60387;49.994;14.660;2023-02-28T07:41:42;98879.91;;;3.77;50.25
71915;BME280;60387;49.994;14.660;2023-02-28T07:44:16;98877.81;;;3.79;48.29
71915;BME280;60387;49.994;14.660;2023-02-28T07:46:49;98870.00;;;3.77;49.33
71915;BME280;60387;49.994;14.660;2023-02-28T07:49:22;98893.56;;;3.98;48.44
71915;BME280;60387;49.994;14.660;2023-02-28T07:51:55;98901.53;;;4.05;48.25
71915;BME280;60387;49.994;14.660;2023-02-28T07:54:29;98904.91;;;4.12;47.27
71915;BME280;60387;49.994;14.660;2023-02-28T07:57:02;98902.00;;;4.13;47.02
71915;BME280;60387;49.994;14.660;2023-02-28T07:59:36;98906.88;;;4.16;46.93
71915;BME280;60387;49.994;14.660;2023-02-28T08:02:16;98901.06;;;4.19;47.48
71915;BME280;60387;49.994;14.660;2023-02-28T08:04:50;98902.94;;;4.30;46.47
71915;BME280;60387;49.994;14.660;2023-02-28T08:07:23;98899.69;;;4.28;46.55
71915;BME280;60387;49.994;14.660;2023-02-28T08:09:56;98909.47;;;4.34;47.25
71915;BME280;60387;49.994;14.660;2023-02-28T08:12:30;98896.06;;;4.34;45.68
71915;BME280;60387;49.994;14.660;2023-02-28T08:15:03;98905.50;;;4.25;46.23
71915;BME280;60387;49.994;14.660;2023-02-28T08:17:36;98905.06;;;4.40;44.90
71915;BME280;60387;49.994;14.660;2023-02-28T08:20:10;98902.47;;;4.45;44.39
71915;BME280;60387;49.994;14.660;2023-02-28T08:22:44;98912.06;;;4.41;44.80
71915;BME280;60387;49.994;14.660;2023-02-28T08:25:17;98909.38;;;4.52;44.62
71915;BME280;60387;49.994;14.660;2023-02-28T08:27:52;98903.75;;;4.54;45.28
71915;BME280;60387;49.994;14.660;2023-02-28T08:30:25;98906.56;;;4.47;44.88
71915;BME280;60387;49.994;14.660;2023-02-28T08:32:58;98900.28;;;4.53;44.61
71915;BME280;60387;49.994;14.660;2023-02-28T08:35:32;98895.00;;;4.70;44.57
71915;BME280;60387;49.994;14.660;2023-02-28T08:38:05;98884.13;;;4.88;44.94
71915;BME280;60387;49.994;14.660;2023-02-28T08:40:38;98891.06;;;5.12;44.77
71915;BME280;60387;49.994;14.660;2023-02-28T08:43:12;98887.09;;;5.42;44.19
71915;BME280;60387;49.994;14.660;2023-02-28T08:45:45;98886.06;;;5.71;43.54
71915;BME280;60387;49.994;14.660;2023-02-28T08:48:18;98884.66;;;5.97;44.75
71915;BME280;60387;49.994;14.660;2023-02-28T08:51:06;98897.53;;;6.28;43.68
71915;BME280;60387;49.994;14.660;2023-02-28T08:53:40;98894.69;;;6.34;41.44
71915;BME280;60387;49.994;14.660;2023-02-28T08:56:15;98885.38;;;6.41;40.38
71915;BME280;60387;49.994;14.660;2023-02-28T08:58:49;98896.06;;;6.36;41.52
71915;BME280;60387;49.994;14.660;2023-02-28T09:01:26;98896.84;;;6.04;40.58
71915;BME280;60387;49.994;14.660;2023-02-28T09:03:59;98907.94;;;6.08;41.06
71915;BME280;60387;49.994;14.660;2023-02-28T09:06:33;98890.34;;;6.17;40.89
71915;BME280;60387;49.994;14.660;2023-02-28T09:09:07;98889.28;;;6.18;42.01
71915;BME280;60387;49.994;14.660;2023-02-28T09:11:41;98886.91;;;6.21;41.50
71915;BME280;60387;49.994;14.660;2023-02-28T09:14:14;98882.69;;;6.25;40.21
71915;BME280;60387;49.994;14.660;2023-02-28T09:16:48;98897.63;;;6.16;40.68
71915;BME280;60387;49.994;14.660;2023-02-28T09:19:21;98887.75;;;6.22;40.17
71915;BME280;60387;49.994;14.660;2023-02-28T09:21:55;98890.34;;;6.17;39.03
71915;BME280;60387;49.994;14.660;2023-02-28T09:24:28;98890.75;;;5.92;40.51
71915;BME280;60387;49.994;14.660;2023-02-28T09:27:01;98878.31;;;6.03;39.96
71915;BME280;60387;49.994;14.660;2023-02-28T09:29:34;98885.97;;;6.27;39.60
71915;BME280;60387;49.994;14.660;2023-02-28T09:32:08;98900.63;;;6.20;39.19
71915;BME280;60387;49.994;14.660;2023-02-28T09:34:41;98923.78;;;6.21;39.79
71915;BME280;60387;49.994;14.660;2023-02-28T09:37:14;98882.19;;;6.28;39.17
71915;BME280;60387;49.994;14.660;2023-02-28T09:39:48;98880.72;;;6.37;40.20
71915;BME280;60387;49.994;14.660;2023-02-28T09:42:25;98880.06;;;6.46;39.50
71915;BME280;60387;49.994;14.660;2023-02-28T09:45:21;98909.13;;;6.44;39.78
71915;BME280;60387;49.994;14.660;2023-02-28T09:47:59;98895.81;;;6.38;39.58
71915;BME280;60387;49.994;14.660;2023-02-28T09:50:46;98896.53;;;6.33;39.49
71915;BME280;60387;49.994;14.660;2023-02-28T09:53:28;98891.34;;;6.43;40.16
71915;BME280;60387;49.994;14.660;2023-02-28T09:56:12;98892.63;;;6.57;39.55
71915;BME280;60387;49.994;14.660;2023-02-28T09:59:01;98887.97;;;6.53;39.21
71915;BME280;60387;49.994;14.660;2023-02-28T10:01:50;98888.19;;;6.68;39.84
71915;BME280;60387;49.994;14.660;2023-02-28T10:04:34;98892.03;;;6.93;39.45
71915;BME280;60387;49.994;14.660;2023-02-28T10:09:57;98892.66;;;7.43;39.72
71915;BME280;60387;49.994;14.660;2023-02-28T10:12:34;98895.78;;;7.57;37.46
71915;BME280;60387;49.994;14.660;2023-02-28T10:15:15;98897.56;;;7.73;38.79
71915;BME280;60387;49.994;14.660;2023-02-28T10:17:54;98893.66;;;7.85;37.45
71915;BME280;60387;49.994;14.660;2023-02-28T10:20:33;98898.59;;;7.93;37.35
71915;BME280;60387;49.994;14.660;2023-02-28T10:23:25;98907.66;;;7.82;36.89
71915;BME280;60387;49.994;14.660;2023-02-28T10:26:13;98906.03;;;7.81;36.96
71915;BME280;60387;49.994;14.660;2023-02-28T10:28:47;98901.19;;;7.83;36.78
71915;BME280;60387;49.994;14.660;2023-02-28T10:31:20;98890.97;;;7.85;37.75
71915;BME280;60387;49.994;14.660;2023-02-28T10:33:53;98892.56;;;7.81;37.17
71915;BME280;60387;49.994;14.660;2023-02-28T10:36:27;98893.91;;;7.84;36.28
71915;BME280;60387;49.994;14.660;2023-02-28T10:39:00;98889.34;;;7.84;37.80
71915;BME280;60387;49.994;14.660;2023-02-28T10:41:33;98876.69;;;7.85;37.65
71915;BME280;60387;49.994;14.660;2023-02-28T10:44:23;98896.50;;;8.00;37.53
71915;BME280;60387;49.994;14.660;2023-02-28T10:46:57;98896.66;;;8.15;36.58
71915;BME280;60387;49.994;14.660;2023-02-28T10:49:30;98901.94;;;8.32;36.98
71915;BME280;60387;49.994;14.660;2023-02-28T10:52:04;98894.91;;;8.31;37.03
71915;BME280;60387;49.994;14.660;2023-02-28T10:54:37;98891.97;;;8.32;36.29
71915;BME280;60387;49.994;14.660;2023-02-28T10:57:23;98894.13;;;8.35;36.62
71915;BME280;60387;49.994;14.660;2023-02-28T11:00:13;98889.81;;;8.34;37.30
71915;BME280;60387;49.994;14.660;2023-02-28T11:02:48;98889.63;;;8.14;36.23
71915;BME280;60387;49.994;14.660;2023-02-28T11:05:31;98890.34;;;8.36;36.28
71915;BME280;60387;49.994;14.660;2023-02-28T11:08:06;98889.88;;;8.44;36.60
71915;BME280;60387;49.994;14.660;2023-02-28T11:10:48;98880.69;;;8.40;35.47
71915;BME280;60387;49.994;14.660;2023-02-28T11:13:32;98882.31;;;8.41;36.84
71915;BME280;60387;49.994;14.660;2023-02-28T11:16:09;98873.91;;;8.38;36.22
71915;BME280;60387;49.994;14.660;2023-02-28T11:18:52;98875.84;;;8.42;36.46
71915;BME280;60387;49.994;14.660;2023-02-28T11:21:30;98891.13;;;8.32;35.57
71915;BME280;60387;49.994;14.660;2023-02-28T11:26:42;98868.81;;;8.41;37.24
71915;BME280;60387;49.994;14.660;2023-02-28T11:29:28;98871.81;;;8.45;35.89
71915;BME280;60387;49.994;14.660;2023-02-28T11:32:20;98887.59;;;8.26;36.42
71915;BME280;60387;49.994;14.660;2023-02-28T11:35:33;98894.00;;;8.20;35.95
71915;BME280;60387;49.994;14.660;2023-02-28T11:38:12;98868.16;;;8.29;36.08
71915;BME280;60387;49.994;14.660;2023-02-28T11:43:42;98873.69;;;8.18;35.75
71915;BME280;60387;49.994;14.660;2023-02-28T11:55:17;98847.91;;;8.68;36.25
71915;BME280;60387;49.994;14.660;2023-02-28T12:17:16;98854.50;;;8.82;36.42
71915;BME280;60387;49.994;14.660;2023-02-28T12:20:24;98840.66;;;8.74;35.23
71915;BME280;60387;49.994;14.660;2023-02-28T12:29:05;98828.34;;;8.98;34.10
71915;BME280;60387;49.994;14.660;2023-02-28T12:31:52;98823.75;;;8.93;34.75
71915;BME280;60387;49.994;14.660;2023-02-28T12:35:16;98823.75;;;8.93;34.68
71915;BME280;60387;49.994;14.660;2023-02-28T12:38:04;98827.84;;;9.06;34.96
71915;BME280;60387;49.994;14.660;2023-02-28T12:40:47;98831.59;;;8.95;34.37
71915;BME280;60387;49.994;14.660;2023-02-28T12:43:27;98822.34;;;8.86;34.51
71915;BME280;60387;49.994;14.660;2023-02-28T12:48:48;98817.72;;;8.81;35.14
71915;BME280;60387;49.994;14.660;2023-02-28T12:51:25;98828.81;;;8.80;35.04
71915;BME280;60387;49.994;14.660;2023-02-28T12:59:51;98821.72;;;8.69;34.58
71915;BME280;60387;49.994;14.660;2023-02-28T13:09:13;98817.38;;;8.63;34.41
71915;BME280;60387;49.994;14.660;2023-02-28T13:11:49;98811.34;;;8.51;35.42
71915;BME280;60387;49.994;14.660;2023-02-28T13:14:27;98804.06;;;8.51;35.95
71915;BME280;60387;49.994;14.660;2023-02-28T13:24:56;98811.59;;;8.44;35.64
71915;BME280;60387;49.994;14.660;2023-02-28T13:27:36;98809.19;;;8.48;35.30
71915;BME280;60387;49.994;14.660;2023-02-28T13:38:48;98809.81;;;8.65;35.30
71915;BME280;60387;49.994;14.660;2023-02-28T13:52:07;98800.97;;;8.33;35.61
71915;BME280;60387;49.994;14.660;2023-02-28T13:55:19;98799.13;;;8.38;35.22
71915;BME280;60387;49.994;14.660;2023-02-28T14:03:51;98796.59;;;8.73;36.09
71915;BME280;60387;49.994;14.660;2023-02-28T14:06:35;98793.84;;;8.58;35.52
71915;BME280;60387;49.994;14.660;2023-02-28T14:09:29;98786.03;;;8.62;35.61
71915;BME280;60387;49.994;14.660;2023-02-28T14:21:24;98796.22;;;8.45;35.33
71915;BME280;60387;49.994;14.660;2023-02-28T14:27:31;98790.47;;;8.36;35.79
71915;BME280;60387;49.994;14.660;2023-02-28T14:36:12;98788.31;;;8.33;35.61
71915;BME280;60387;49.994;14.660;2023-02-28T14:41:37;98782.56;;;8.20;35.70
71915;BME280;60387;49.994;14.660;2023-02-28T14:44:22;98783.03;;;8.17;35.76
71915;BME280;60387;49.994;14.660;2023-02-28T14:47:02;98778.94;;;8.09;36.37
71915;BME280;60387;49.994;14.660;2023-02-28T14:49:42;98788.06;;;8.03;36.25
71915;BME280;60387;49.994;14.660;2023-02-28T14:52:26;98772.94;;;8.02;36.34
71915;BME280;60387;49.994;14.660;2023-02-28T14:55:12;98773.47;;;7.99;35.59
71915;BME280;60387;49.994;14.660;2023-02-28T14:58:06;98771.50;;;7.90;35.82
71915;BME280;60387;49.994;14.660;2023-02-28T15:00:56;98770.34;;;7.81;35.83
71915;BME280;60387;49.994;14.660;2023-02-28T15:06:04;98774.44;;;7.83;36.21
71915;BME280;60387;49.994;14.660;2023-02-28T15:08:38;98772.75;;;7.77;36.17
71915;BME280;60387;49.994;14.660;2023-02-28T15:11:18;98764.34;;;7.74;36.61
71915;BME280;60387;49.994;14.660;2023-02-28T15:13:54;98776.53;;;7.76;36.22
71915;BME280;60387;49.994;14.660;2023-02-28T15:16:41;98769.44;;;7.70;37.05
71915;BME280;60387;49.994;14.660;2023-02-28T15:22:00;98776.75;;;7.70;37.02
71915;BME280;60387;49.994;14.660;2023-02-28T15:24:40;98779.13;;;7.66;36.53
71915;BME280;60387;49.994;14.660;2023-02-28T15:27:20;98773.34;;;7.53;37.16
71915;BME280;60387;49.994;14.660;2023-02-28T15:29:58;98769.75;;;7.42;37.13
71915;BME280;60387;49.994;14.660;2023-02-28T15:32:34;98761.41;;;7.44;37.06
71915;BME280;60387;49.994;14.660;2023-02-28T15:38:00;98762.28;;;7.23;37.70
71915;BME280;60387;49.994;14.660;2023-02-28T15:40:38;98755.56;;;7.25;37.94
71915;BME280;60387;49.994;14.660;2023-02-28T15:43:16;98769.25;;;7.19;38.31
71915;BME280;60387;49.994;14.660;2023-02-28T15:48:43;98763.78;;;7.14;38.13
71915;BME280;60387;49.994;14.660;2023-02-28T15:51:32;98761.25;;;7.02;38.15
71915;BME280;60387;49.994;14.660;2023-02-28T15:54:10;98759.31;;;6.98;38.20
71915;BME280;60387;49.994;14.660;2023-02-28T15:56:46;98766.53;;;6.92;38.34
71915;BME280;60387;49.994;14.660;2023-02-28T15:59:25;98768.16;;;6.93;38.48
71915;BME280;60387;49.994;14.660;2023-02-28T16:07:43;98769.97;;;6.88;38.34
71915;BME280;60387;49.994;14.660;2023-02-28T16:10:16;98778.81;;;6.83;39.01
71915;BME280;60387;49.994;14.660;2023-02-28T16:12:49;98781.94;;;6.75;38.48
71915;BME280;60387;49.994;14.660;2023-02-28T16:15:26;98781.13;;;6.75;38.23
71915;BME280;60387;49.994;14.660;2023-02-28T16:18:00;98775.44;;;6.71;38.81
71915;BME280;60387;49.994;14.660;2023-02-28T16:20:33;98784.59;;;6.70;38.66
71915;BME280;60387;49.994;14.660;2023-02-28T16:23:06;98770.81;;;6.67;38.83
71915;BME280;60387;49.994;14.660;2023-02-28T16:25:42;98773.19;;;6.63;38.72
71915;BME280;60387;49.994;14.660;2023-02-28T16:28:30;98776.88;;;6.57;38.72
71915;BME280;60387;49.994;14.660;2023-02-28T16:31:06;98774.94;;;6.53;38.97
71915;BME280;60387;49.994;14.660;2023-02-28T16:33:40;98775.16;;;6.51;39.12